createdAt,value
2022-12-28T00:01:08.619Z,5.29
2022-12-28T00:06:08.519Z,5.30
2022-12-28T00:11:12.317Z,5.36
2022-12-28T00:16:09.439Z,5.38
2022-12-28T00:21:08.309Z,5.41
2022-12-28T00:26:08.330Z,5.46
2022-12-28T00:31:08.238Z,5.53
2022-12-28T00:36:08.111Z,5.64
2022-12-28T00:41:08.077Z,5.68
2022-12-28T00:46:08.032Z,5.72
2022-12-28T00:51:07.988Z,5.82
2022-12-28T00:56:07.912Z,5.84
2022-12-28T01:01:07.906Z,5.89
2022-12-28T01:06:34.027Z,5.84
2022-12-28T01:11:26.402Z,5.91
2022-12-28T01:16:26.420Z,5.94
2022-12-28T01:21:26.316Z,6.01
2022-12-28T01:26:26.237Z,6.05
2022-12-28T01:31:26.205Z,6.11
2022-12-28T01:36:26.110Z,6.16
2022-12-28T01:41:25.991Z,6.22
2022-12-28T01:46:25.947Z,6.28
2022-12-28T01:51:25.873Z,6.35
2022-12-28T01:56:25.870Z,6.42
2022-12-28T02:01:25.842Z,6.46
2022-12-28T02:06:25.728Z,6.46
2022-12-28T02:11:25.606Z,6.45
2022-12-28T02:16:25.617Z,6.39
2022-12-28T02:21:25.472Z,6.38
2022-12-28T02:26:25.422Z,6.39
2022-12-28T02:31:25.325Z,6.45
2022-12-28T02:36:25.293Z,6.46
2022-12-28T02:41:25.204Z,6.45
2022-12-28T02:46:25.150Z,6.44
2022-12-28T02:51:25.064Z,6.42
2022-12-28T02:56:25.016Z,6.44
2022-12-28T03:01:24.974Z,6.45
2022-12-28T03:06:30.109Z,6.48
2022-12-28T03:11:25.811Z,6.46
2022-12-28T03:16:24.727Z,6.52
2022-12-28T03:21:25.385Z,6.48
2022-12-28T03:26:24.613Z,6.49
2022-12-28T03:31:24.562Z,6.51
2022-12-28T03:36:24.479Z,6.51
2022-12-28T03:41:24.396Z,6.49
2022-12-28T03:46:24.439Z,6.52
2022-12-28T03:51:24.273Z,6.59
2022-12-28T03:56:24.221Z,6.57
2022-12-28T04:01:24.184Z,6.59
2022-12-28T04:06:24.089Z,6.60
2022-12-28T04:11:23.998Z,6.67
2022-12-28T04:16:24.002Z,6.72
2022-12-28T04:21:23.857Z,6.75
2022-12-28T04:26:23.820Z,6.81
2022-12-28T04:31:23.745Z,6.89
2022-12-28T04:36:23.676Z,7.00
2022-12-28T04:41:23.584Z,7.07
2022-12-28T04:46:23.548Z,7.17
2022-12-28T04:51:23.446Z,7.21
2022-12-28T04:56:23.407Z,7.31
2022-12-28T05:01:23.430Z,7.36
2022-12-28T05:06:23.282Z,7.38
2022-12-28T05:11:23.166Z,7.42
2022-12-28T05:16:55.674Z,7.38
2022-12-28T05:21:48.108Z,7.45
2022-12-28T05:26:48.001Z,7.45
2022-12-28T05:31:47.987Z,7.43
2022-12-28T05:36:47.838Z,7.45
2022-12-28T05:41:47.811Z,7.43
2022-12-28T05:46:47.743Z,7.48
2022-12-28T05:51:47.732Z,7.50
2022-12-28T05:56:47.594Z,7.60
2022-12-28T06:01:47.601Z,7.66
2022-12-28T06:06:47.453Z,7.67
2022-12-28T06:11:47.411Z,7.70
2022-12-28T06:16:47.394Z,7.72
2022-12-28T06:21:47.275Z,7.80
2022-12-28T06:26:47.174Z,7.82
2022-12-28T06:31:47.225Z,7.80
2022-12-28T06:36:47.066Z,7.83
2022-12-28T06:41:47.035Z,7.90
2022-12-28T06:46:46.934Z,7.94
2022-12-28T06:51:46.872Z,7.93
2022-12-28T06:56:46.812Z,7.94
2022-12-28T07:01:46.811Z,7.93
2022-12-28T07:06:46.658Z,7.95
2022-12-28T07:11:46.622Z,7.97
2022-12-28T07:16:46.509Z,8.00
2022-12-28T07:21:46.463Z,7.98
2022-12-28T07:26:46.381Z,8.03
2022-12-28T07:31:46.307Z,8.06
2022-12-28T07:36:46.271Z,8.10
2022-12-28T07:41:46.205Z,8.10
2022-12-28T07:46:46.131Z,8.10
2022-12-28T07:51:46.076Z,8.09
2022-12-28T07:56:47.053Z,8.09
2022-12-28T08:01:46.003Z,8.12
2022-12-28T08:06:45.883Z,8.19
2022-12-28T08:11:45.793Z,8.19
2022-12-28T08:16:45.732Z,8.19
2022-12-28T08:21:45.650Z,8.23
2022-12-28T08:26:45.613Z,8.30
2022-12-28T08:31:45.517Z,8.37
2022-12-28T08:36:45.475Z,8.37
2022-12-28T08:41:45.359Z,8.36
2022-12-28T08:46:45.508Z,8.38
2022-12-28T08:51:45.286Z,8.42
2022-12-28T08:56:45.200Z,8.42
2022-12-28T09:01:45.299Z,8.45
2022-12-28T09:06:45.060Z,8.48
2022-12-28T09:11:45.054Z,8.52
2022-12-28T09:16:44.923Z,8.48
2022-12-28T09:21:44.899Z,8.51
2022-12-28T09:26:44.791Z,8.55
2022-12-28T09:31:44.740Z,8.61
2022-12-28T09:36:44.641Z,8.61
2022-12-28T09:41:44.569Z,8.67
2022-12-28T09:46:48.765Z,8.69
2022-12-28T09:51:44.435Z,8.73
2022-12-28T09:56:44.399Z,8.81
2022-12-28T10:01:44.422Z,8.84
2022-12-28T10:06:44.291Z,8.87
2022-12-28T10:11:44.184Z,8.91
2022-12-28T10:16:48.684Z,8.95
2022-12-28T10:21:44.072Z,8.99
2022-12-28T10:26:44.644Z,9.00
2022-12-28T10:31:43.958Z,9.02
2022-12-28T10:36:43.864Z,9.10
2022-12-28T10:41:43.775Z,9.14
2022-12-28T10:46:44.693Z,9.19
2022-12-28T10:51:43.627Z,9.25
2022-12-28T10:56:43.694Z,9.25
2022-12-28T11:01:43.657Z,9.28
2022-12-28T11:06:43.482Z,9.36
2022-12-28T11:11:43.431Z,9.43
2022-12-28T11:16:43.330Z,9.46
2022-12-28T11:21:43.934Z,9.44
2022-12-28T11:26:43.163Z,9.46
2022-12-28T11:31:43.104Z,9.39
2022-12-28T11:36:43.036Z,9.36
2022-12-28T11:41:56.101Z,9.37
2022-12-28T11:46:43.979Z,9.34
2022-12-28T11:51:42.845Z,9.37
2022-12-28T11:56:42.765Z,9.36
2022-12-28T12:01:42.742Z,9.34
2022-12-28T12:06:42.663Z,9.28
2022-12-28T12:11:42.584Z,9.26
2022-12-28T12:16:42.530Z,9.36
2022-12-28T12:21:42.441Z,9.39
2022-12-28T12:26:42.345Z,9.40
2022-12-28T12:31:42.313Z,9.41
2022-12-28T12:36:42.227Z,9.37
2022-12-28T12:41:42.177Z,9.34
2022-12-28T12:46:42.107Z,9.34
2022-12-28T12:51:42.059Z,9.32
2022-12-28T12:56:41.978Z,9.32
2022-12-28T13:01:42.994Z,9.40
2022-12-28T13:06:41.829Z,9.39
2022-12-28T13:11:41.812Z,9.37
2022-12-28T13:16:41.688Z,9.44
2022-12-28T13:21:41.657Z,9.41
2022-12-28T13:26:41.570Z,9.47
2022-12-28T13:32:07.088Z,9.48
2022-12-28T13:36:59.880Z,9.51
2022-12-28T13:41:59.396Z,9.46
2022-12-28T13:46:59.415Z,9.46
2022-12-28T13:52:00.037Z,9.55
2022-12-28T13:57:14.680Z,9.54
2022-12-28T14:02:00.286Z,9.48
2022-12-28T14:06:59.101Z,9.47
2022-12-28T14:11:59.039Z,9.46
2022-12-28T14:16:58.969Z,9.44
2022-12-28T14:21:58.911Z,9.43
2022-12-28T14:26:59.118Z,9.44
2022-12-28T14:31:58.750Z,9.46
2022-12-28T14:36:58.707Z,9.47
2022-12-28T14:41:59.312Z,9.47
2022-12-28T14:46:58.581Z,9.50
2022-12-28T14:51:58.477Z,9.50
2022-12-28T14:56:59.951Z,9.54
2022-12-28T15:01:58.439Z,9.54
2022-12-28T15:06:58.312Z,9.50
2022-12-28T15:11:58.221Z,9.51
2022-12-28T15:16:58.233Z,9.59
2022-12-28T15:21:58.075Z,9.69
2022-12-28T15:26:58.036Z,9.80
2022-12-28T15:31:57.989Z,9.72
2022-12-28T15:36:57.911Z,9.77
2022-12-28T15:41:57.793Z,9.73
2022-12-28T15:46:57.800Z,9.72
2022-12-28T15:51:57.707Z,9.74
2022-12-28T15:56:57.650Z,9.72
2022-12-28T16:01:57.727Z,9.77
2022-12-28T16:06:57.569Z,9.77
2022-12-28T16:11:57.443Z,9.74
2022-12-28T16:16:57.468Z,9.76
2022-12-28T16:21:57.308Z,9.73
2022-12-28T16:26:57.243Z,9.68
2022-12-28T16:31:57.204Z,9.65
2022-12-28T16:36:57.251Z,9.62
2022-12-28T16:41:57.034Z,9.64
2022-12-28T16:46:56.965Z,9.64
2022-12-28T16:51:56.879Z,9.66
2022-12-28T16:56:56.848Z,9.68
2022-12-28T17:01:56.944Z,9.66
2022-12-28T17:06:56.715Z,9.65
2022-12-28T17:11:58.074Z,9.66
2022-12-28T17:16:56.632Z,9.66
2022-12-28T17:21:56.456Z,9.72
2022-12-28T17:26:59.190Z,9.73
2022-12-28T17:31:57.395Z,9.66
2022-12-28T17:36:56.287Z,9.62
2022-12-28T17:41:56.210Z,9.61
2022-12-28T17:46:56.167Z,9.66
2022-12-28T17:51:56.085Z,9.72
2022-12-28T17:56:56.073Z,9.73
2022-12-28T18:01:56.157Z,9.77
2022-12-28T18:06:55.903Z,9.76
2022-12-28T18:11:55.808Z,9.72
2022-12-28T18:16:55.906Z,9.76
2022-12-28T18:21:55.707Z,9.89
2022-12-28T18:26:55.669Z,9.89
2022-12-28T18:31:55.538Z,9.98
2022-12-28T18:36:55.493Z,9.99
2022-12-28T18:41:55.402Z,9.99
2022-12-28T18:46:55.405Z,9.98
2022-12-28T18:51:55.295Z,9.92
2022-12-28T18:56:55.233Z,9.91
2022-12-28T19:02:06.283Z,9.91
2022-12-28T19:06:56.153Z,9.95
2022-12-28T19:11:55.006Z,9.98
2022-12-28T19:16:54.945Z,9.97
2022-12-28T19:21:58.586Z,9.95
2022-12-28T19:26:54.833Z,9.87
2022-12-28T19:31:54.795Z,9.79
2022-12-28T19:36:54.672Z,9.80
2022-12-28T19:41:54.601Z,9.83
2022-12-28T19:46:54.649Z,9.73
2022-12-28T19:51:54.480Z,9.99
2022-12-28T19:56:54.412Z,9.87
2022-12-28T20:01:54.519Z,9.72
2022-12-28T20:06:54.275Z,9.65
2022-12-28T20:11:54.192Z,9.55
2022-12-28T20:16:54.184Z,9.58
2022-12-28T20:21:54.067Z,9.59
2022-12-28T20:27:01.138Z,9.59
2022-12-28T20:31:55.047Z,9.64
2022-12-28T20:36:53.891Z,9.79
2022-12-28T20:41:53.811Z,9.82
2022-12-28T20:46:53.831Z,9.84
2022-12-28T20:51:53.685Z,9.91
2022-12-28T20:56:55.680Z,9.89
2022-12-28T21:01:53.733Z,10.01
2022-12-28T21:06:53.504Z,10.12
2022-12-28T21:11:53.447Z,10.25
2022-12-28T21:16:53.543Z,10.79
2022-12-28T21:21:53.280Z,10.92
2022-12-28T21:26:53.202Z,11.00
2022-12-28T21:31:53.155Z,11.10
2022-12-28T21:36:53.092Z,11.14
2022-12-28T21:41:53.005Z,11.12
2022-12-28T21:46:52.961Z,11.23
2022-12-28T21:51:52.857Z,11.33
2022-12-28T21:56:52.879Z,11.36
2022-12-28T22:01:52.943Z,11.36
2022-12-28T22:06:52.709Z,11.41
2022-12-28T22:11:52.597Z,11.35
2022-12-28T22:16:52.595Z,11.30
2022-12-28T22:21:52.455Z,11.33
2022-12-28T22:26:52.427Z,11.33
2022-12-28T22:31:52.399Z,11.35
2022-12-28T22:36:52.264Z,11.36
2022-12-28T22:41:52.227Z,11.40
2022-12-28T22:46:52.129Z,11.36
2022-12-28T22:51:52.053Z,11.37
2022-12-28T22:56:51.989Z,11.45
2022-12-28T23:01:52.044Z,11.43
2022-12-28T23:06:51.889Z,11.43
2022-12-28T23:11:51.847Z,11.41
2022-12-28T23:16:51.786Z,11.50
2022-12-28T23:21:52.176Z,11.63
2022-12-28T23:26:51.603Z,11.54
2022-12-28T23:31:53.515Z,11.50
2022-12-28T23:36:51.463Z,11.47
2022-12-28T23:41:51.399Z,11.41
2022-12-28T23:46:56.910Z,11.36
2022-12-28T23:51:52.287Z,11.33
2022-12-28T23:56:51.225Z,11.29
